KCEF/CEF METAR and TAF weather

Enter ICAO airport designator
Station Type Date Time Source
KCEF METAR 2018/07/16 23:56 UTC NOAA

KCEF 162356Z 17011KT 10SM SCT050 SCT100 BKN200 29/22 A2988 RMK AO2A SLP122 T02910216 10345 20291 58002


Station Type Date Time Source
KCEF Decoded METAR 2018/07/16 23:56 UTC NOAA

Chicopee Falls / Westover Air Force Base, MA, United States (KCEF) 42-12N 072-32W 75M
Jul 16, 2018 - 07:56 PM EDT / 2018.07.16 2356 UTC
Wind: from the S (170 degrees) at 13 MPH (11 KT):0
Visibility: 10 mile(s):0
Sky conditions: mostly cloudy
Temperature: 84.4 F (29.1 C)
Dew Point: 70.9 F (21.6 C)
Relative Humidity: 64%
Pressure (altimeter): 29.88 in. Hg (1011 hPa)
Pressure tendency: 0.01 inches (0.2 hPa) lower than three hours ago
ob: KCEF 162356Z 17011KT 10SM SCT050 SCT100 BKN200 29/22 A2988 RMK AO2A SLP122 T02910216 10345 20291 58002
cycle: 0

Station Type Date Time Source
KCEF TAF 2018/07/16 19:28 UTC NOAA

TAF
AMD KCEF 161911Z 1619/1724 20006KT 9999 BKN040 QNH2989INS
TEMPO 1623/1701 27010G15KT 6000 -TSRA BKN035CB
BECMG 1705/1706 19006KT 8000 BR SCT030 QNH2988INS
BECMG 1712/1713 20009KT 9999 NSW SCT008 BKN030 QNH2984INS
TEMPO 1713/1716 9000 -SHRA
BECMG 1717/1718 23012G18KT 9000 -SHRA SCT015 OVC030 QNH2977INS
TEMPO 1719/1722 24025G35KT 3200 -TSRA FEW008 BKN015CB OVC030 TX34/1619Z TN25/1708Z


Example: see airport list